createdAt,value
2022-12-18T00:01:19.750Z,33.13
2022-12-18T00:03:47.517Z,37.13
2022-12-18T00:06:15.638Z,37.08
2022-12-18T00:08:44.181Z,36.15
2022-12-18T00:11:17.194Z,33.47
2022-12-18T00:13:44.118Z,37.38
2022-12-18T00:16:13.096Z,40.22
2022-12-18T00:18:41.170Z,34.95
2022-12-18T00:21:09.799Z,30.88
2022-12-18T00:23:38.253Z,33.03
2022-12-18T00:26:11.819Z,35.08
2022-12-18T00:28:38.604Z,32.78
2022-12-18T00:31:13.435Z,35.22
2022-12-18T00:33:40.836Z,39.53
2022-12-18T00:36:14.261Z,32.58
2022-12-18T00:38:41.934Z,33.05
2022-12-18T00:41:09.840Z,35.13
2022-12-18T00:43:38.082Z,31.80
2022-12-18T00:46:05.523Z,34.28
2022-12-18T00:48:32.643Z,32.92
2022-12-18T00:50:59.619Z,39.78
2022-12-18T00:53:26.539Z,37.78
2022-12-18T00:55:53.244Z,35.00
2022-12-18T00:58:20.212Z,36.08
2022-12-18T01:00:50.969Z,33.63
2022-12-18T01:03:18.280Z,31.92
2022-12-18T01:05:45.071Z,31.85
2022-12-18T01:08:12.203Z,37.38
2022-12-18T01:10:42.374Z,32.67
2022-12-18T01:13:09.434Z,31.52
2022-12-18T01:15:37.192Z,31.52
2022-12-18T01:18:04.071Z,32.90
2022-12-18T01:20:31.856Z,31.00
2022-12-18T01:22:58.978Z,31.77
2022-12-18T01:25:27.339Z,30.60
2022-12-18T01:27:54.792Z,30.08
2022-12-18T01:30:21.895Z,29.15
2022-12-18T01:32:48.826Z,27.40
2022-12-18T01:35:15.640Z,32.97
2022-12-18T01:37:42.531Z,32.05
2022-12-18T01:40:09.881Z,29.80
2022-12-18T01:42:36.940Z,33.70
2022-12-18T01:45:07.983Z,32.15
2022-12-18T01:47:41.507Z,27.50
2022-12-18T01:50:18.664Z,32.78
2022-12-18T01:52:51.325Z,36.35
2022-12-18T01:55:20.688Z,32.25
2022-12-18T01:57:48.053Z,32.63
2022-12-18T02:00:18.396Z,33.28
2022-12-18T02:02:46.866Z,27.60
2022-12-18T02:05:16.553Z,27.60
2022-12-18T02:08:14.689Z,32.35
2022-12-18T02:10:44.543Z,32.80
2022-12-18T02:13:33.635Z,28.88
2022-12-18T02:16:07.191Z,26.77
2022-12-18T02:18:38.536Z,25.10
2022-12-18T02:21:08.415Z,26.25
2022-12-18T02:23:55.082Z,26.48
2022-12-18T02:26:39.135Z,25.77
2022-12-18T02:29:24.958Z,24.38
2022-12-18T02:31:57.177Z,24.80
2022-12-18T02:34:29.118Z,26.38
2022-12-18T02:36:56.769Z,23.60
2022-12-18T02:39:25.258Z,24.15
2022-12-18T02:42:08.812Z,21.85
2022-12-18T02:44:44.064Z,23.42
2022-12-18T02:47:13.823Z,25.02
2022-12-18T02:50:03.599Z,19.70
2022-12-18T02:52:39.997Z,22.67
2022-12-18T02:55:20.200Z,22.33
2022-12-18T02:58:06.309Z,25.65
2022-12-18T03:00:42.074Z,26.50
2022-12-18T03:03:13.332Z,33.13
2022-12-18T03:05:58.248Z,29.58
2022-12-18T03:08:30.311Z,28.60
2022-12-18T03:11:06.234Z,33.65
2022-12-18T03:13:39.210Z,29.90
2022-12-18T03:16:07.470Z,29.83
2022-12-18T03:18:38.091Z,26.90
2022-12-18T03:21:06.995Z,31.55
2022-12-18T03:23:48.510Z,33.85
2022-12-18T03:26:18.792Z,32.50
2022-12-18T03:28:51.933Z,30.13
2022-12-18T03:31:22.566Z,26.48
2022-12-18T03:34:02.718Z,27.23
2022-12-18T03:36:38.832Z,27.33
2022-12-18T03:39:06.069Z,31.92
2022-12-18T03:41:46.490Z,28.15
2022-12-18T03:44:30.481Z,28.33
2022-12-18T03:47:19.480Z,29.77
2022-12-18T03:49:50.433Z,24.45
2022-12-18T03:52:26.215Z,26.92
2022-12-18T03:54:55.433Z,26.40
2022-12-18T03:57:24.502Z,30.05
2022-12-18T03:59:56.924Z,29.60
2022-12-18T04:02:27.663Z,21.27
2022-12-18T04:04:58.143Z,23.17
2022-12-18T04:07:25.471Z,27.30
2022-12-18T04:09:55.973Z,28.90
2022-12-18T04:12:27.491Z,27.05
2022-12-18T04:14:54.245Z,27.60
2022-12-18T04:17:21.120Z,28.10
2022-12-18T04:19:48.387Z,23.70
2022-12-18T04:22:15.163Z,27.60
2022-12-18T04:24:46.339Z,25.15
2022-12-18T04:27:21.607Z,23.05
2022-12-18T04:29:50.805Z,19.33
2022-12-18T04:32:18.342Z,18.23
2022-12-18T04:34:45.617Z,19.52
2022-12-18T04:37:12.413Z,18.17
2022-12-18T04:39:39.626Z,19.30
2022-12-18T04:42:12.840Z,21.25
2022-12-18T04:44:39.679Z,22.15
2022-12-18T04:47:06.369Z,19.13
2022-12-18T04:49:33.202Z,20.02
2022-12-18T04:51:59.955Z,20.55
2022-12-18T04:54:26.708Z,23.20
2022-12-18T04:56:53.629Z,18.95
2022-12-18T04:59:20.975Z,21.10
2022-12-18T05:01:47.856Z,24.80
2022-12-18T05:04:14.648Z,19.55
2022-12-18T05:06:41.331Z,23.38
2022-12-18T05:09:08.046Z,26.92
2022-12-18T05:11:34.714Z,22.38
2022-12-18T05:14:02.888Z,29.48
2022-12-18T05:16:29.633Z,22.92
2022-12-18T05:18:56.788Z,23.23
2022-12-18T05:21:23.544Z,25.30
2022-12-18T05:23:50.339Z,18.38
2022-12-18T05:26:19.587Z,27.50
2022-12-18T05:28:47.181Z,23.33
2022-12-18T05:31:14.354Z,23.73
2022-12-18T05:33:41.428Z,21.75
2022-12-18T05:36:09.438Z,25.10
2022-12-18T05:38:39.357Z,22.40
2022-12-18T05:41:06.780Z,24.55
2022-12-18T05:43:36.694Z,21.88
2022-12-18T05:46:08.496Z,21.58
2022-12-18T05:48:35.845Z,25.67
2022-12-18T05:51:08.149Z,25.00
2022-12-18T05:53:35.386Z,18.45
2022-12-18T05:56:04.969Z,23.90
2022-12-18T05:58:32.649Z,22.23
2022-12-18T06:00:59.603Z,21.27
2022-12-18T06:03:32.211Z,20.55
2022-12-18T06:06:00.584Z,18.23
2022-12-18T06:08:27.424Z,24.42
2022-12-18T06:10:54.424Z,25.75
2022-12-18T06:13:21.576Z,19.20
2022-12-18T06:15:48.432Z,22.75
2022-12-18T06:18:15.977Z,22.83
2022-12-18T06:20:42.931Z,22.13
2022-12-18T06:23:10.671Z,22.75
2022-12-18T06:25:40.674Z,24.60
2022-12-18T06:28:07.502Z,20.40
2022-12-18T06:30:34.272Z,24.20
2022-12-18T06:33:01.127Z,25.20
2022-12-18T06:35:27.884Z,23.25
2022-12-18T06:37:54.756Z,26.40
2022-12-18T06:40:22.033Z,24.33
2022-12-18T06:42:49.282Z,23.17
2022-12-18T06:45:16.375Z,24.08
2022-12-18T06:47:43.360Z,21.40
2022-12-18T06:50:10.701Z,22.60
2022-12-18T06:52:38.040Z,26.17
2022-12-18T06:55:05.353Z,27.50
2022-12-18T06:57:33.323Z,21.48
2022-12-18T07:00:00.195Z,24.40
2022-12-18T07:02:27.187Z,28.80
2022-12-18T07:04:54.277Z,25.02
2022-12-18T07:07:21.206Z,26.42
2022-12-18T07:09:51.336Z,21.88
2022-12-18T07:12:27.325Z,22.17
2022-12-18T07:14:54.125Z,28.83
2022-12-18T07:17:20.884Z,22.05
2022-12-18T07:19:47.726Z,22.58
2022-12-18T07:22:14.395Z,23.17
2022-12-18T07:24:41.314Z,24.13
2022-12-18T07:27:08.143Z,22.38
2022-12-18T07:29:35.478Z,23.30
2022-12-18T07:32:02.303Z,24.90
2022-12-18T07:34:29.189Z,20.65
2022-12-18T07:36:57.060Z,26.48
2022-12-18T07:39:23.775Z,23.98
2022-12-18T07:42:10.410Z,26.25
2022-12-18T07:44:40.248Z,26.08
2022-12-18T07:47:11.793Z,21.73
2022-12-18T07:49:40.099Z,20.25
2022-12-18T07:52:06.977Z,22.27
2022-12-18T07:54:33.848Z,21.42
2022-12-18T07:57:00.751Z,23.55
2022-12-18T07:59:27.892Z,24.15
2022-12-18T08:01:54.765Z,25.05
2022-12-18T08:04:21.645Z,27.17
2022-12-18T08:06:48.525Z,25.55
2022-12-18T08:09:16.033Z,26.73
2022-12-18T08:11:42.767Z,23.88
2022-12-18T08:14:10.152Z,27.88
2022-12-18T08:16:37.012Z,24.95
2022-12-18T08:19:04.009Z,25.60
2022-12-18T08:21:32.084Z,24.90
2022-12-18T08:24:03.698Z,20.58
2022-12-18T08:26:32.307Z,23.30
2022-12-18T08:29:00.661Z,23.88
2022-12-18T08:31:29.247Z,21.17
2022-12-18T08:33:56.965Z,24.27
2022-12-18T08:36:27.898Z,24.05
2022-12-18T08:38:55.129Z,17.33
2022-12-18T08:41:21.962Z,23.38
2022-12-18T08:44:07.338Z,24.08
2022-12-18T08:46:44.548Z,19.75
2022-12-18T08:49:12.540Z,19.23
2022-12-18T08:51:42.862Z,22.17
2022-12-18T08:54:14.626Z,15.65
2022-12-18T08:56:47.773Z,20.98
2022-12-18T08:59:19.371Z,20.60
2022-12-18T09:01:47.469Z,18.23
2022-12-18T09:04:15.124Z,16.67
2022-12-18T09:06:41.950Z,19.23
2022-12-18T09:09:08.705Z,18.38
2022-12-18T09:11:35.516Z,18.73
2022-12-18T09:14:02.911Z,21.83
2022-12-18T09:16:32.536Z,22.63
2022-12-18T09:19:00.858Z,17.05
2022-12-18T09:21:30.607Z,18.70
2022-12-18T09:23:57.877Z,15.82
2022-12-18T09:26:25.920Z,16.77
2022-12-18T09:28:53.094Z,16.77
2022-12-18T09:31:22.170Z,19.13
2022-12-18T09:33:49.160Z,20.23
2022-12-18T09:36:18.113Z,15.82
2022-12-18T09:38:45.390Z,14.68
2022-12-18T09:41:24.352Z,17.65
2022-12-18T09:43:58.304Z,16.52
2022-12-18T09:46:29.600Z,15.20
2022-12-18T09:49:01.424Z,16.08
2022-12-18T09:51:36.081Z,16.98
2022-12-18T09:54:13.787Z,16.20
2022-12-18T09:56:43.224Z,24.70
2022-12-18T09:59:21.519Z,15.07
2022-12-18T10:01:48.767Z,13.15
2022-12-18T10:04:15.784Z,15.07
2022-12-18T10:06:42.552Z,16.25
2022-12-18T10:09:29.587Z,14.93
2022-12-18T10:12:21.152Z,18.20
2022-12-18T10:15:11.878Z,15.35
2022-12-18T10:18:04.337Z,15.98
2022-12-18T10:20:35.683Z,15.38
2022-12-18T10:23:17.162Z,14.93
2022-12-18T10:25:56.190Z,20.40
2022-12-18T10:28:23.622Z,19.42
2022-12-18T10:30:50.632Z,14.43
2022-12-18T10:33:22.556Z,18.88
2022-12-18T10:35:53.873Z,17.27
2022-12-18T10:38:21.507Z,16.58
2022-12-18T10:40:54.517Z,14.85
2022-12-18T10:43:27.702Z,15.93
2022-12-18T10:46:09.842Z,13.35
2022-12-18T10:48:40.407Z,13.07
2022-12-18T10:51:12.748Z,14.70
2022-12-18T10:53:41.656Z,17.00
2022-12-18T10:56:08.621Z,14.65
2022-12-18T10:58:37.340Z,14.00
2022-12-18T11:01:05.703Z,16.73
2022-12-18T11:03:57.656Z,12.20
2022-12-18T11:06:28.946Z,15.60
2022-12-18T11:09:01.701Z,13.10
2022-12-18T11:11:28.862Z,12.70
2022-12-18T11:14:07.235Z,16.75
2022-12-18T11:19:56.766Z,16.20
2022-12-18T11:22:36.922Z,16.38
2022-12-18T11:25:34.469Z,13.48
2022-12-18T11:28:03.439Z,15.52
2022-12-18T11:30:33.453Z,17.02
2022-12-18T11:33:17.392Z,17.80
2022-12-18T11:35:59.571Z,15.15
2022-12-18T11:38:41.269Z,15.95
2022-12-18T11:41:49.501Z,15.93
2022-12-18T11:44:24.242Z,15.68
2022-12-18T11:46:56.799Z,20.35
2022-12-18T11:49:23.457Z,16.50
2022-12-18T11:51:59.624Z,16.80
2022-12-18T11:54:26.608Z,17.27
2022-12-18T11:57:08.156Z,19.07
2022-12-18T12:00:00.009Z,17.27
2022-12-18T12:02:54.750Z,18.08
2022-12-18T12:05:47.795Z,17.45
2022-12-18T12:08:36.224Z,17.63
2022-12-18T12:11:15.302Z,18.27
2022-12-18T12:14:18.495Z,18.23
2022-12-18T12:16:48.265Z,19.58
2022-12-18T12:19:33.968Z,19.17
2022-12-18T12:22:06.670Z,18.98
2022-12-18T12:24:58.304Z,22.70
2022-12-18T12:27:41.430Z,17.50
2022-12-18T12:30:13.524Z,20.02
2022-12-18T12:33:04.010Z,22.75
2022-12-18T12:35:49.629Z,19.13
2022-12-18T12:38:36.988Z,22.92
2022-12-18T12:41:06.793Z,15.43
2022-12-18T12:43:50.197Z,20.33
2022-12-18T12:46:20.158Z,18.08
2022-12-18T12:48:53.770Z,19.70
2022-12-18T12:51:34.299Z,17.17
2022-12-18T12:54:03.612Z,19.45
2022-12-18T12:56:41.585Z,17.67
2022-12-18T12:59:24.848Z,19.67
2022-12-18T13:02:19.543Z,20.52
2022-12-18T13:05:05.155Z,17.85
2022-12-18T13:07:36.767Z,19.83
2022-12-18T13:10:27.346Z,16.42
2022-12-18T13:13:16.729Z,20.50
2022-12-18T13:16:05.711Z,21.92
2022-12-18T13:18:33.874Z,19.83
2022-12-18T13:21:03.259Z,20.42
2022-12-18T13:23:33.609Z,16.73
2022-12-18T13:26:10.789Z,16.23
2022-12-18T13:28:49.615Z,18.83
2022-12-18T13:31:42.819Z,18.50
2022-12-18T13:34:31.567Z,16.20
2022-12-18T13:37:37.306Z,16.63
2022-12-18T13:40:39.617Z,18.15
2022-12-18T13:43:23.479Z,18.40
2022-12-18T13:46:02.672Z,17.38
2022-12-18T13:48:33.738Z,20.58
2022-12-18T13:51:04.563Z,20.40
2022-12-18T13:53:43.939Z,18.65
2022-12-18T13:56:17.371Z,17.33
2022-12-18T13:58:44.505Z,18.15
2022-12-18T14:01:24.905Z,18.83
2022-12-18T14:03:52.025Z,18.20
2022-12-18T14:06:18.883Z,19.60
2022-12-18T14:08:47.380Z,19.33
2022-12-18T14:11:22.489Z,22.10
2022-12-18T14:13:50.144Z,20.02
2022-12-18T14:16:18.687Z,19.15
2022-12-18T14:19:05.035Z,22.05
2022-12-18T14:21:49.791Z,21.75
2022-12-18T14:24:20.411Z,20.20
2022-12-18T14:26:48.680Z,19.98
2022-12-18T14:29:31.755Z,19.67
2022-12-18T14:32:34.267Z,22.05
2022-12-18T14:35:14.711Z,21.27
2022-12-18T14:37:41.923Z,21.77
2022-12-18T14:40:14.287Z,24.10
2022-12-18T14:42:41.141Z,22.33
2022-12-18T14:45:42.295Z,20.30
2022-12-18T14:48:13.789Z,25.42
2022-12-18T14:50:42.319Z,23.02
2022-12-18T14:53:41.163Z,23.77
2022-12-18T14:56:15.051Z,21.55
2022-12-18T14:58:47.593Z,26.38
2022-12-18T15:01:36.517Z,25.35
2022-12-18T15:04:05.173Z,22.88
2022-12-18T15:06:38.339Z,26.35
2022-12-18T15:09:24.007Z,24.52
2022-12-18T15:11:59.579Z,24.40
2022-12-18T15:14:32.855Z,23.08
2022-12-18T15:17:01.758Z,25.27
2022-12-18T15:19:37.294Z,24.00
2022-12-18T15:22:06.653Z,24.92
2022-12-18T15:24:34.058Z,25.17
2022-12-18T15:27:01.185Z,24.55
2022-12-18T15:29:28.540Z,23.88
2022-12-18T15:32:05.908Z,20.80
2022-12-18T15:34:35.149Z,28.15
2022-12-18T15:37:02.057Z,23.88
2022-12-18T15:39:28.833Z,26.83
2022-12-18T15:42:14.093Z,28.83
2022-12-18T15:44:41.029Z,28.65
2022-12-18T15:47:13.356Z,25.23
2022-12-18T15:49:40.708Z,26.58
2022-12-18T15:52:09.269Z,26.42
2022-12-18T15:54:54.937Z,25.70
2022-12-18T15:57:24.465Z,25.70
2022-12-18T15:59:58.670Z,27.83
2022-12-18T16:02:26.076Z,27.10
2022-12-18T16:04:53.365Z,25.05
2022-12-18T16:07:25.089Z,25.23
2022-12-18T16:09:53.220Z,26.90
2022-12-18T16:12:26.515Z,27.65
2022-12-18T16:14:53.940Z,29.40
2022-12-18T16:17:27.556Z,28.88
2022-12-18T16:19:54.976Z,25.90
2022-12-18T16:22:26.869Z,25.33
2022-12-18T16:24:57.437Z,28.45
2022-12-18T16:27:27.812Z,24.27
2022-12-18T16:29:54.611Z,29.30
2022-12-18T16:32:23.477Z,27.40
2022-12-18T16:34:50.419Z,26.70
2022-12-18T16:37:17.856Z,28.75
2022-12-18T16:39:44.831Z,28.02
2022-12-18T16:42:17.923Z,29.35
2022-12-18T16:44:45.187Z,29.38
2022-12-18T16:47:13.300Z,28.08
2022-12-18T16:49:51.775Z,29.52
2022-12-18T16:52:20.049Z,25.35
2022-12-18T16:54:47.277Z,27.92
2022-12-18T16:57:17.130Z,28.27
2022-12-18T16:59:46.498Z,27.30
2022-12-18T17:02:19.182Z,30.85
2022-12-18T17:04:50.171Z,32.42
2022-12-18T17:07:17.181Z,28.77
2022-12-18T17:09:44.208Z,31.75
2022-12-18T17:12:11.169Z,28.45
2022-12-18T17:14:38.368Z,29.08
2022-12-18T17:17:22.589Z,25.80
2022-12-18T17:19:52.393Z,28.65
2022-12-18T17:22:20.166Z,25.77
2022-12-18T17:24:47.623Z,25.25
2022-12-18T17:27:14.654Z,28.70
2022-12-18T17:29:47.259Z,26.15
2022-12-18T17:32:15.329Z,28.45
2022-12-18T17:34:42.039Z,25.02
2022-12-18T17:37:09.401Z,30.75
2022-12-18T17:39:36.315Z,28.15
2022-12-18T17:42:04.095Z,32.50
2022-12-18T17:44:31.987Z,24.13
2022-12-18T17:46:59.356Z,28.33
2022-12-18T17:49:26.991Z,25.67
2022-12-18T17:51:54.270Z,26.52
2022-12-18T17:54:21.034Z,24.13
2022-12-18T17:56:47.857Z,24.80
2022-12-18T17:59:14.988Z,28.45
2022-12-18T18:01:45.005Z,28.17
2022-12-18T18:04:13.708Z,25.98
2022-12-18T18:06:42.035Z,23.92
2022-12-18T18:09:15.934Z,29.60
2022-12-18T18:12:02.571Z,29.90
2022-12-18T18:14:30.123Z,22.98
2022-12-18T18:17:06.458Z,28.05
2022-12-18T18:19:34.371Z,32.10
2022-12-18T18:22:02.137Z,31.15
2022-12-18T18:24:30.128Z,26.83
2022-12-18T18:26:59.731Z,32.88
2022-12-18T18:29:27.895Z,31.60
2022-12-18T18:31:56.441Z,34.67
2022-12-18T18:34:25.231Z,29.23
2022-12-18T18:36:56.905Z,27.23
2022-12-18T18:39:23.937Z,31.65
2022-12-18T18:41:50.846Z,30.10
2022-12-18T18:44:26.685Z,30.58
2022-12-18T18:46:55.615Z,34.70
2022-12-18T18:49:24.576Z,36.70
2022-12-18T18:51:51.572Z,27.98
2022-12-18T18:54:18.191Z,26.75
2022-12-18T18:57:18.773Z,28.80
2022-12-18T18:59:35.894Z,28.90
2022-12-18T19:02:06.589Z,31.90
2022-12-18T19:04:34.100Z,33.95
2022-12-18T19:07:01.192Z,29.60
2022-12-18T19:09:31.594Z,33.00
2022-12-18T19:12:17.871Z,30.88
2022-12-18T19:14:44.931Z,30.17
2022-12-18T19:17:11.880Z,30.17
2022-12-18T19:19:39.050Z,29.15
2022-12-18T19:22:06.207Z,27.13
2022-12-18T19:24:33.408Z,31.45
2022-12-18T19:27:03.557Z,29.20
2022-12-18T19:29:34.373Z,27.40
2022-12-18T19:32:06.273Z,32.08
2022-12-18T19:34:33.470Z,32.13
2022-12-18T19:37:01.086Z,30.23
2022-12-18T19:39:28.023Z,30.38
2022-12-18T19:41:54.881Z,30.60
2022-12-18T19:44:21.707Z,29.52
2022-12-18T19:46:50.586Z,31.33
2022-12-18T19:49:18.138Z,32.95
2022-12-18T19:51:45.596Z,29.13
2022-12-18T19:54:16.658Z,32.83
2022-12-18T19:56:44.087Z,32.00
2022-12-18T19:59:11.005Z,33.05
2022-12-18T20:01:38.055Z,31.20
2022-12-18T20:04:05.295Z,29.15
2022-12-18T20:06:35.677Z,27.40
2022-12-18T20:09:05.375Z,30.48
2022-12-18T20:11:33.493Z,31.67
2022-12-18T20:14:07.121Z,26.00
2022-12-18T20:16:34.062Z,28.73
2022-12-18T20:19:01.122Z,27.83
2022-12-18T20:21:28.354Z,29.83
2022-12-18T20:24:00.234Z,34.90
2022-12-18T20:26:27.023Z,27.80
2022-12-18T20:28:54.907Z,28.40
2022-12-18T20:31:22.893Z,28.50
2022-12-18T20:33:49.974Z,26.80
2022-12-18T20:36:24.725Z,31.48
2022-12-18T20:38:55.681Z,30.05
2022-12-18T20:41:25.280Z,31.48
2022-12-18T20:43:52.299Z,26.85
2022-12-18T20:46:19.473Z,27.92
2022-12-18T20:48:47.902Z,25.77
2022-12-18T20:51:17.138Z,30.33
2022-12-18T20:53:49.509Z,25.73
2022-12-18T20:56:21.243Z,26.70
2022-12-18T20:58:49.595Z,27.63
2022-12-18T21:01:18.959Z,31.00
2022-12-18T21:03:46.774Z,28.05
2022-12-18T21:06:15.991Z,32.75
2022-12-18T21:08:43.019Z,30.33
2022-12-18T21:11:40.814Z,29.25
2022-12-18T21:14:13.730Z,25.52
2022-12-18T21:16:40.946Z,27.67
2022-12-18T21:19:07.975Z,32.10
2022-12-18T21:21:35.661Z,28.40
2022-12-18T21:24:06.263Z,29.13
2022-12-18T21:26:33.646Z,27.95
2022-12-18T21:29:03.617Z,31.88
2022-12-18T21:31:34.047Z,24.95
2022-12-18T21:34:02.409Z,26.35
2022-12-18T21:36:30.270Z,27.85
2022-12-18T21:38:58.878Z,26.50
2022-12-18T21:41:45.272Z,24.48
2022-12-18T21:44:17.007Z,25.35
2022-12-18T21:46:50.178Z,27.75
2022-12-18T21:49:22.736Z,28.55
2022-12-18T21:51:51.050Z,25.77
2022-12-18T21:54:18.677Z,31.73
2022-12-18T21:56:49.816Z,28.20
2022-12-18T21:59:28.839Z,28.70
2022-12-18T22:01:58.073Z,24.30
2022-12-18T22:04:25.717Z,29.58
2022-12-18T22:06:53.057Z,27.45
2022-12-18T22:09:22.143Z,30.15
2022-12-18T22:11:49.808Z,30.48
2022-12-18T22:14:17.229Z,25.48
2022-12-18T22:16:44.110Z,27.20
2022-12-18T22:19:12.287Z,29.65
2022-12-18T22:21:43.250Z,26.70
2022-12-18T22:24:18.465Z,26.50
2022-12-18T22:26:46.650Z,25.27
2022-12-18T22:29:34.362Z,33.38
2022-12-18T22:32:02.596Z,29.85
2022-12-18T22:34:29.259Z,26.77
2022-12-18T22:36:58.553Z,30.20
2022-12-18T22:39:27.520Z,29.85
2022-12-18T22:41:55.919Z,29.25
2022-12-18T22:44:25.634Z,26.40
2022-12-18T22:47:05.607Z,29.05
2022-12-18T22:49:34.897Z,24.52
2022-12-18T22:52:06.516Z,28.08
2022-12-18T22:54:33.318Z,29.92
2022-12-18T22:56:59.958Z,29.48
2022-12-18T22:59:26.731Z,32.05
2022-12-18T23:01:59.229Z,26.95
2022-12-18T23:04:33.439Z,31.10
2022-12-18T23:07:05.085Z,29.75
2022-12-18T23:09:32.864Z,27.35
2022-12-18T23:12:00.002Z,29.27
2022-12-18T23:14:27.423Z,29.75
2022-12-18T23:16:54.168Z,28.73
2022-12-18T23:19:21.435Z,28.65
2022-12-18T23:21:51.388Z,27.52
2022-12-18T23:24:18.297Z,28.65
2022-12-18T23:26:45.145Z,30.45
2022-12-18T23:29:12.065Z,23.65
2022-12-18T23:31:39.564Z,27.25
2022-12-18T23:34:08.301Z,23.92
2022-12-18T23:36:46.068Z,22.15
2022-12-18T23:39:22.383Z,29.13
2022-12-18T23:42:00.414Z,26.25
2022-12-18T23:44:27.727Z,22.58
2022-12-18T23:46:55.216Z,27.30
2022-12-18T23:49:22.535Z,27.45
2022-12-18T23:51:49.684Z,24.33
2022-12-18T23:54:16.410Z,24.33
2022-12-18T23:56:43.089Z,26.95
2022-12-18T23:59:10.020Z,24.52
